createdAt,value
2018-09-26T00:01:13.097Z,82.04
2018-09-26T00:03:45.326Z,81.41
2018-09-26T00:06:14.276Z,81.57
2018-09-26T00:08:43.208Z,80.86
2018-09-26T00:11:12.370Z,81.25
2018-09-26T00:13:41.519Z,82.12
2018-09-26T00:16:10.462Z,82.35
2018-09-26T00:18:39.374Z,81.65
2018-09-26T00:21:08.752Z,81.83
2018-09-26T00:23:37.718Z,81.48
2018-09-26T00:26:06.626Z,82.28
2018-09-26T00:28:35.777Z,82.01
2018-09-26T00:31:04.698Z,81.75
2018-09-26T00:33:33.609Z,81.32
2018-09-26T00:36:03.069Z,81.06
2018-09-26T00:38:32.032Z,82.22
2018-09-26T00:41:02.556Z,82.05
2018-09-26T00:43:31.516Z,82.77
2018-09-26T00:46:00.611Z,82.30
2018-09-26T00:48:29.688Z,81.65
2018-09-26T00:50:59.114Z,82.50
2018-09-26T00:53:28.035Z,82.50
2018-09-26T00:55:56.974Z,81.69
2018-09-26T00:58:25.948Z,82.42
2018-09-26T01:00:54.867Z,82.33
2018-09-26T01:03:23.822Z,82.50
2018-09-26T01:05:52.826Z,81.97
2018-09-26T01:08:21.860Z,82.82
2018-09-26T01:10:50.894Z,83.06
2018-09-26T01:13:19.810Z,82.39
2018-09-26T01:15:48.750Z,82.48
2018-09-26T01:18:17.725Z,82.64
2018-09-26T01:20:46.689Z,82.86
2018-09-26T01:23:15.705Z,81.96
2018-09-26T01:25:44.594Z,82.22
2018-09-26T01:28:13.692Z,82.84
2018-09-26T01:30:42.660Z,82.38
2018-09-26T01:33:11.600Z,83.13
2018-09-26T01:35:40.556Z,82.68
2018-09-26T01:38:09.531Z,81.75
2018-09-26T01:40:38.491Z,82.49
2018-09-26T01:43:07.435Z,82.86
2018-09-26T01:45:36.689Z,82.08
2018-09-26T01:48:05.766Z,81.79
2018-09-26T01:50:34.851Z,82.79
2018-09-26T01:53:03.857Z,82.16
2018-09-26T01:55:32.925Z,82.50
2018-09-26T01:58:01.991Z,81.89
2018-09-26T02:00:31.247Z,81.93
2018-09-26T02:03:00.313Z,81.82
2018-09-26T02:05:29.259Z,81.22
2018-09-26T02:07:58.210Z,82.19
2018-09-26T02:10:27.196Z,82.22
2018-09-26T02:12:56.147Z,81.80
2018-09-26T02:15:25.203Z,81.73
2018-09-26T02:17:54.197Z,81.98
2018-09-26T02:20:23.154Z,82.88
2018-09-26T02:22:52.068Z,82.24
2018-09-26T02:25:21.124Z,81.67
2018-09-26T02:27:50.096Z,81.50
2018-09-26T02:30:19.093Z,81.90
2018-09-26T02:32:48.062Z,82.30
2018-09-26T02:35:17.109Z,81.88
2018-09-26T02:37:46.117Z,81.16
2018-09-26T02:40:15.081Z,81.79
2018-09-26T02:42:44.226Z,82.11
2018-09-26T02:45:13.189Z,81.83
2018-09-26T02:47:42.121Z,81.65
2018-09-26T02:50:11.105Z,81.57
2018-09-26T02:52:40.157Z,82.03
2018-09-26T02:55:09.111Z,81.79
2018-09-26T02:57:38.100Z,82.21
2018-09-26T03:00:07.043Z,81.61
2018-09-26T03:02:36.030Z,81.39
2018-09-26T03:05:05.009Z,81.73
2018-09-26T03:07:33.954Z,81.93
2018-09-26T03:10:02.908Z,81.83
2018-09-26T03:12:31.869Z,81.27
2018-09-26T03:15:00.832Z,81.77
2018-09-26T03:17:29.819Z,81.10
2018-09-26T03:19:58.810Z,81.46
2018-09-26T03:22:27.738Z,81.08
2018-09-26T03:24:56.658Z,81.33
2018-09-26T03:27:25.693Z,80.64
2018-09-26T03:29:54.565Z,81.25
2018-09-26T03:32:24.200Z,81.13
2018-09-26T03:34:53.436Z,81.24
2018-09-26T03:37:22.364Z,81.09
2018-09-26T03:39:51.326Z,82.07
2018-09-26T03:42:20.425Z,81.89
2018-09-26T03:44:49.344Z,81.48
2018-09-26T03:47:18.296Z,81.22
2018-09-26T03:49:47.221Z,81.26
2018-09-26T03:52:16.187Z,81.63
2018-09-26T03:54:45.147Z,81.61
2018-09-26T03:57:14.437Z,81.14
2018-09-26T03:59:43.365Z,80.80
2018-09-26T04:02:12.258Z,81.31
2018-09-26T04:04:41.208Z,81.61
2018-09-26T04:07:10.150Z,81.45
2018-09-26T04:09:39.108Z,80.87
2018-09-26T04:12:08.075Z,81.62
2018-09-26T04:14:37.119Z,80.42
2018-09-26T04:17:06.055Z,81.18
2018-09-26T04:19:34.977Z,81.07
2018-09-26T04:22:03.923Z,80.95
2018-09-26T04:24:32.881Z,80.57
2018-09-26T04:27:02.101Z,80.84
2018-09-26T04:29:30.789Z,80.62
2018-09-26T04:31:59.681Z,79.95
2018-09-26T04:34:28.622Z,80.73
2018-09-26T04:36:57.556Z,80.40
2018-09-26T04:39:26.467Z,79.99
2018-09-26T04:41:55.465Z,79.75
2018-09-26T04:44:24.376Z,80.78
2018-09-26T04:46:53.299Z,80.48
2018-09-26T04:49:22.293Z,80.17
2018-09-26T04:51:51.336Z,80.70
2018-09-26T04:54:20.243Z,80.13
2018-09-26T04:56:49.132Z,80.21
2018-09-26T04:59:18.078Z,79.58
2018-09-26T05:01:46.934Z,79.21
2018-09-26T05:04:15.981Z,79.91
2018-09-26T05:06:45.135Z,79.04
2018-09-26T05:09:14.034Z,79.59
2018-09-26T05:11:42.996Z,79.59
2018-09-26T05:14:12.038Z,79.23
2018-09-26T05:16:41.017Z,79.17
2018-09-26T05:19:09.910Z,79.01
2018-09-26T05:21:38.996Z,78.60
2018-09-26T05:24:07.937Z,78.73
2018-09-26T05:26:36.914Z,78.76
2018-09-26T05:29:05.840Z,78.39
2018-09-26T05:31:34.769Z,78.49
2018-09-26T05:34:03.707Z,78.59
2018-09-26T05:36:32.618Z,78.18
2018-09-26T05:39:01.609Z,78.10
2018-09-26T05:41:30.532Z,78.69
2018-09-26T05:43:59.452Z,78.00
2018-09-26T05:46:28.574Z,78.21
2018-09-26T05:48:57.563Z,78.33
2018-09-26T05:51:26.499Z,78.01
2018-09-26T05:53:55.969Z,78.13
2018-09-26T05:56:25.053Z,78.22
2018-09-26T05:58:54.007Z,77.87
2018-09-26T06:01:22.960Z,77.49
2018-09-26T06:03:51.905Z,78.06
2018-09-26T06:06:20.857Z,78.36
2018-09-26T06:08:49.804Z,78.59
2018-09-26T06:11:18.809Z,77.83
2018-09-26T06:13:47.902Z,77.70
2018-09-26T06:16:16.799Z,78.15
2018-09-26T06:18:45.748Z,77.69
2018-09-26T06:21:14.754Z,78.17
2018-09-26T06:23:43.717Z,78.41
2018-09-26T06:26:12.690Z,78.37
2018-09-26T06:28:41.624Z,78.61
2018-09-26T06:31:10.566Z,78.25
2018-09-26T06:33:39.492Z,77.84
2018-09-26T06:36:08.462Z,78.51
2018-09-26T06:38:37.435Z,77.06
2018-09-26T06:41:06.372Z,77.29
2018-09-26T06:43:35.337Z,77.41
2018-09-26T06:46:04.350Z,76.49
2018-09-26T06:48:33.420Z,77.12
2018-09-26T06:51:02.592Z,76.54
2018-09-26T06:53:31.526Z,76.39
2018-09-26T06:56:00.468Z,76.70
2018-09-26T06:58:29.423Z,76.05
2018-09-26T07:00:58.626Z,76.71
2018-09-26T07:03:27.635Z,75.47
2018-09-26T07:05:56.553Z,75.46
2018-09-26T07:08:25.531Z,76.09
2018-09-26T07:10:54.567Z,75.41
2018-09-26T07:13:23.536Z,75.44
2018-09-26T07:15:52.830Z,75.19
2018-09-26T07:18:21.790Z,75.43
2018-09-26T07:20:50.708Z,75.00
2018-09-26T07:23:19.817Z,75.48
2018-09-26T07:25:48.897Z,74.70
2018-09-26T07:28:17.964Z,75.01
2018-09-26T07:30:46.896Z,74.92
2018-09-26T07:33:15.874Z,74.71
2018-09-26T07:35:44.770Z,74.05
2018-09-26T07:38:13.752Z,74.41
2018-09-26T07:40:42.871Z,74.94
2018-09-26T07:43:11.805Z,74.68
2018-09-26T07:45:40.832Z,73.50
2018-09-26T07:48:09.803Z,73.07
2018-09-26T07:50:38.767Z,73.87
2018-09-26T07:53:07.832Z,73.35
2018-09-26T07:55:36.817Z,72.33
2018-09-26T07:58:05.770Z,72.97
2018-09-26T08:00:34.818Z,72.16
2018-09-26T08:03:03.730Z,71.94
2018-09-26T08:05:32.875Z,70.98
2018-09-26T08:08:01.827Z,71.30
2018-09-26T08:10:30.908Z,70.71
2018-09-26T08:12:59.875Z,71.05
2018-09-26T08:15:28.821Z,70.15
2018-09-26T08:17:57.810Z,68.67
2018-09-26T08:20:26.753Z,69.19
2018-09-26T08:22:55.821Z,69.23
2018-09-26T08:25:24.840Z,68.87
2018-09-26T08:27:53.902Z,67.80
2018-09-26T08:30:22.948Z,67.87
2018-09-26T08:32:52.187Z,68.41
2018-09-26T08:35:21.160Z,67.54
2018-09-26T08:37:50.193Z,66.04
2018-09-26T08:40:19.215Z,67.13
2018-09-26T08:42:48.168Z,67.38
2018-09-26T08:45:17.189Z,66.77
2018-09-26T08:47:46.725Z,65.97
2018-09-26T08:50:16.228Z,66.16
2018-09-26T08:52:45.303Z,66.21
2018-09-26T08:55:14.252Z,66.26
2018-09-26T08:57:43.231Z,67.53
2018-09-26T09:00:12.171Z,64.50
2018-09-26T09:02:41.163Z,65.27
2018-09-26T09:05:10.127Z,65.60
2018-09-26T09:07:39.297Z,65.24
2018-09-26T09:10:08.236Z,64.14
2018-09-26T09:12:37.148Z,64.86
2018-09-26T09:15:06.161Z,63.68
2018-09-26T09:17:35.178Z,63.43
2018-09-26T09:20:04.237Z,62.77
2018-09-26T09:22:33.198Z,64.42
2018-09-26T09:25:02.180Z,62.62
2018-09-26T09:27:31.197Z,63.27
2018-09-26T09:30:00.967Z,62.36
2018-09-26T09:32:30.095Z,61.95
2018-09-26T09:34:59.454Z,61.26
2018-09-26T09:37:28.889Z,62.13
2018-09-26T09:39:59.317Z,62.11
2018-09-26T09:42:28.517Z,61.77
2018-09-26T09:44:57.635Z,62.73
2018-09-26T09:47:26.575Z,61.69
2018-09-26T09:49:55.515Z,60.36
2018-09-26T09:52:24.601Z,60.08
2018-09-26T09:54:53.765Z,61.03
2018-09-26T09:57:22.692Z,61.55
2018-09-26T09:59:51.682Z,60.11
2018-09-26T10:05:39.355Z,59.48
2018-09-26T10:08:11.420Z,59.91
2018-09-26T10:10:40.641Z,59.96
2018-09-26T10:13:09.674Z,59.09
2018-09-26T10:15:38.663Z,59.22
2018-09-26T10:18:13.067Z,59.51
2018-09-26T10:20:43.351Z,59.03
2018-09-26T10:23:12.808Z,58.71
2018-09-26T10:25:41.998Z,59.66
2018-09-26T10:28:10.951Z,59.75
2018-09-26T10:30:40.026Z,59.21
2018-09-26T10:33:09.097Z,58.86
2018-09-26T10:35:38.070Z,58.79
2018-09-26T10:38:07.014Z,58.97
2018-09-26T10:40:36.138Z,58.44
2018-09-26T10:43:05.500Z,58.01
2018-09-26T10:45:35.042Z,57.51
2018-09-26T10:48:04.019Z,59.09
2018-09-26T10:50:32.986Z,58.53
2018-09-26T10:53:02.479Z,58.23
2018-09-26T10:55:31.460Z,58.29
2018-09-26T10:58:00.551Z,58.56
2018-09-26T11:00:29.547Z,59.43
2018-09-26T11:02:59.026Z,57.63
2018-09-26T11:05:28.231Z,57.78
2018-09-26T11:07:57.145Z,58.64
2018-09-26T11:10:26.188Z,57.33
2018-09-26T11:12:55.119Z,57.02
2018-09-26T11:15:24.359Z,57.54
2018-09-26T11:17:53.465Z,57.82
2018-09-26T11:20:22.453Z,57.74
2018-09-26T11:22:51.419Z,57.14
2018-09-26T11:25:20.547Z,58.08
2018-09-26T11:27:49.497Z,57.58
2018-09-26T11:30:18.586Z,56.60
2018-09-26T11:32:47.801Z,56.26
2018-09-26T11:35:17.051Z,57.00
2018-09-26T11:37:46.319Z,57.28
2018-09-26T11:40:16.555Z,57.78
2018-09-26T11:42:45.688Z,57.43
2018-09-26T11:45:14.708Z,57.27
2018-09-26T11:47:43.897Z,56.68
2018-09-26T11:50:13.046Z,57.59
2018-09-26T11:52:42.824Z,56.75
2018-09-26T11:55:11.964Z,55.60
2018-09-26T11:57:41.183Z,56.28
2018-09-26T12:00:10.121Z,55.66
2018-09-26T12:02:40.109Z,56.02
2018-09-26T12:05:09.656Z,55.83
2018-09-26T12:07:38.655Z,56.20
2018-09-26T12:10:07.831Z,55.06
2018-09-26T12:12:37.280Z,55.77
2018-09-26T12:15:07.261Z,55.82
2018-09-26T12:17:36.267Z,54.67
2018-09-26T12:20:05.214Z,54.64
2018-09-26T12:22:35.011Z,55.05
2018-09-26T12:25:03.938Z,53.89
2018-09-26T12:27:32.890Z,53.73
2018-09-26T12:30:03.081Z,54.05
2018-09-26T12:32:32.274Z,53.01
2018-09-26T12:35:02.646Z,54.14
2018-09-26T12:37:46.502Z,53.56
2018-09-26T12:40:19.099Z,54.22
2018-09-26T12:42:48.741Z,53.36
2018-09-26T12:45:18.798Z,53.69
2018-09-26T12:47:50.726Z,52.38
2018-09-26T12:50:19.672Z,53.28
2018-09-26T12:52:48.595Z,51.98
2018-09-26T12:55:17.552Z,52.32
2018-09-26T12:57:46.484Z,53.11
2018-09-26T13:00:15.439Z,53.17
2018-09-26T13:02:44.474Z,54.06
2018-09-26T13:05:13.341Z,54.42
2018-09-26T13:07:42.285Z,51.44
2018-09-26T13:10:11.623Z,52.09
2018-09-26T13:12:40.586Z,51.80
2018-09-26T13:15:09.543Z,51.29
2018-09-26T13:17:38.623Z,52.61
2018-09-26T13:20:07.682Z,53.12
2018-09-26T13:22:36.638Z,51.61
2018-09-26T13:25:05.652Z,52.33
2018-09-26T13:27:34.590Z,52.16
2018-09-26T13:30:03.703Z,51.08
2018-09-26T13:32:32.641Z,50.89
2018-09-26T13:35:01.654Z,51.33
2018-09-26T13:37:30.597Z,51.22
2018-09-26T13:39:59.599Z,51.88
2018-09-26T13:42:28.681Z,52.73
2018-09-26T13:44:57.977Z,51.60
2018-09-26T13:47:26.944Z,51.92
2018-09-26T13:49:56.043Z,50.83
2018-09-26T13:52:24.997Z,51.03
2018-09-26T13:54:53.897Z,51.61
2018-09-26T13:57:23.237Z,50.69
2018-09-26T13:59:52.178Z,52.13
2018-09-26T14:02:21.142Z,52.17
2018-09-26T14:04:50.244Z,52.50
2018-09-26T14:07:19.215Z,51.57
2018-09-26T14:09:48.126Z,52.83
2018-09-26T14:12:17.139Z,51.60
2018-09-26T14:14:46.048Z,51.75
2018-09-26T14:17:15.054Z,51.66
2018-09-26T14:19:44.446Z,51.32
2018-09-26T14:22:13.371Z,51.66
2018-09-26T14:24:42.502Z,52.31
2018-09-26T14:27:11.449Z,52.12
2018-09-26T14:29:40.368Z,52.54
2018-09-26T14:32:09.393Z,52.44
2018-09-26T14:34:38.316Z,52.27
2018-09-26T14:37:07.239Z,53.19
2018-09-26T14:39:36.261Z,52.72
2018-09-26T14:42:05.088Z,52.46
2018-09-26T14:44:34.055Z,52.14
2018-09-26T14:47:03.421Z,52.84
2018-09-26T14:49:32.333Z,53.22
2018-09-26T14:52:01.317Z,52.63
2018-09-26T14:54:30.247Z,53.67
2018-09-26T14:56:59.186Z,52.84
2018-09-26T14:59:28.124Z,53.73
2018-09-26T15:01:57.055Z,53.33
2018-09-26T15:04:26.143Z,53.06
2018-09-26T15:06:55.277Z,53.34
2018-09-26T15:09:24.249Z,53.14
2018-09-26T15:11:53.167Z,53.01
2018-09-26T15:14:22.219Z,52.46
2018-09-26T15:16:51.079Z,52.82
2018-09-26T15:19:20.017Z,53.29
2018-09-26T15:21:48.945Z,52.90
2018-09-26T15:24:18.022Z,53.03
2018-09-26T15:26:46.887Z,53.40
2018-09-26T15:29:15.853Z,53.21
2018-09-26T15:31:44.848Z,52.99
2018-09-26T15:34:14.061Z,52.73
2018-09-26T15:36:42.949Z,52.89
2018-09-26T15:39:12.216Z,52.94
2018-09-26T15:41:41.518Z,53.43
2018-09-26T15:44:10.412Z,53.14
2018-09-26T15:46:39.361Z,53.01
2018-09-26T15:49:09.323Z,53.87
2018-09-26T15:51:38.228Z,54.27
2018-09-26T15:54:07.468Z,53.32
2018-09-26T15:56:36.397Z,54.26
2018-09-26T15:59:05.350Z,54.08
2018-09-26T16:01:34.305Z,54.52
2018-09-26T16:04:03.292Z,54.26
2018-09-26T16:06:32.530Z,54.48
2018-09-26T16:09:01.471Z,54.90
2018-09-26T16:11:30.420Z,55.17
2018-09-26T16:13:59.377Z,55.60
2018-09-26T16:16:28.305Z,55.42
2018-09-26T16:18:57.272Z,55.21
2018-09-26T16:21:26.179Z,55.11
2018-09-26T16:23:55.555Z,55.29
2018-09-26T16:26:24.505Z,54.76
2018-09-26T16:28:53.410Z,54.93
2018-09-26T16:31:23.310Z,55.21
2018-09-26T16:33:52.349Z,55.56
2018-09-26T16:36:21.364Z,55.64
2018-09-26T16:38:50.297Z,55.22
2018-09-26T16:41:19.698Z,55.10
2018-09-26T16:43:48.617Z,54.85
2018-09-26T16:46:17.680Z,55.19
2018-09-26T16:48:46.549Z,55.31
2018-09-26T16:51:15.471Z,54.92
2018-09-26T16:53:44.466Z,55.35
2018-09-26T16:56:13.435Z,54.76
2018-09-26T16:58:42.523Z,54.65
2018-09-26T17:01:11.474Z,55.30
2018-09-26T17:03:40.443Z,55.49
2018-09-26T17:06:09.427Z,55.31
2018-09-26T17:08:38.362Z,55.13
2018-09-26T17:11:07.321Z,55.21
2018-09-26T17:13:36.472Z,54.40
2018-09-26T17:16:05.534Z,54.86
2018-09-26T17:18:34.458Z,55.48
2018-09-26T17:21:04.270Z,55.56
2018-09-26T17:23:33.217Z,54.80
2018-09-26T17:26:02.158Z,55.51
2018-09-26T17:28:31.181Z,55.98
2018-09-26T17:31:00.113Z,55.32
2018-09-26T17:33:29.115Z,55.64
2018-09-26T17:35:58.050Z,55.57
2018-09-26T17:38:27.000Z,55.74
2018-09-26T17:40:55.888Z,55.48
2018-09-26T17:43:25.440Z,56.41
2018-09-26T17:45:54.355Z,55.35
2018-09-26T17:48:23.347Z,55.26
2018-09-26T17:50:52.329Z,55.72
2018-09-26T17:53:21.271Z,56.24
2018-09-26T17:55:50.304Z,55.86
2018-09-26T17:58:19.307Z,55.88
2018-09-26T18:00:48.229Z,55.97
2018-09-26T18:03:17.208Z,56.25
2018-09-26T18:05:46.156Z,56.31
2018-09-26T18:08:15.284Z,56.18
2018-09-26T18:10:45.090Z,55.43
2018-09-26T18:13:14.307Z,56.63
2018-09-26T18:15:43.426Z,56.08
2018-09-26T18:18:12.374Z,56.66
2018-09-26T18:20:41.360Z,56.62
2018-09-26T18:23:10.374Z,57.17
2018-09-26T18:25:39.336Z,56.98
2018-09-26T18:28:08.322Z,57.58
2018-09-26T18:30:37.345Z,56.87
2018-09-26T18:33:06.363Z,56.96
2018-09-26T18:35:35.349Z,57.11
2018-09-26T18:38:04.322Z,57.48
2018-09-26T18:40:33.292Z,57.71
2018-09-26T18:43:02.261Z,58.16
2018-09-26T18:45:31.369Z,58.66
2018-09-26T18:48:00.557Z,58.33
2018-09-26T18:50:29.502Z,57.94
2018-09-26T18:52:58.510Z,58.24
2018-09-26T18:55:27.617Z,58.56
2018-09-26T18:57:56.558Z,58.04
2018-09-26T19:00:25.524Z,58.03
2018-09-26T19:02:54.652Z,58.42
2018-09-26T19:05:23.618Z,58.33
2018-09-26T19:07:52.989Z,58.94
2018-09-26T19:10:21.994Z,57.92
2018-09-26T19:12:50.938Z,58.80
2018-09-26T19:15:20.279Z,58.54
2018-09-26T19:17:49.247Z,58.97
2018-09-26T19:20:18.215Z,58.83
2018-09-26T19:22:47.222Z,59.05
2018-09-26T19:25:16.193Z,59.97
2018-09-26T19:27:45.207Z,59.72
2018-09-26T19:30:14.701Z,59.99
2018-09-26T19:32:43.665Z,59.49
2018-09-26T19:35:12.933Z,59.42
2018-09-26T19:37:41.879Z,59.46
2018-09-26T19:40:10.815Z,60.24
2018-09-26T19:42:39.766Z,59.32
2018-09-26T19:45:08.731Z,59.98
2018-09-26T19:47:37.746Z,60.41
2018-09-26T19:50:06.704Z,59.98
2018-09-26T19:52:35.823Z,60.78
2018-09-26T19:55:04.655Z,60.06
2018-09-26T19:57:33.623Z,60.11
2018-09-26T20:00:02.625Z,60.69
2018-09-26T20:02:31.551Z,60.38
2018-09-26T20:05:00.586Z,60.30
2018-09-26T20:07:29.551Z,60.44
2018-09-26T20:09:58.585Z,60.79
2018-09-26T20:12:27.625Z,60.27
2018-09-26T20:14:56.538Z,60.64
2018-09-26T20:17:25.519Z,61.44
2018-09-26T20:19:54.653Z,60.93
2018-09-26T20:22:23.614Z,61.45
2018-09-26T20:24:52.565Z,61.55
2018-09-26T20:27:21.732Z,61.01
2018-09-26T20:29:50.557Z,61.90
2018-09-26T20:32:19.499Z,61.52
2018-09-26T20:34:48.491Z,61.88
2018-09-26T20:37:17.529Z,61.94
2018-09-26T20:39:46.598Z,62.55
2018-09-26T20:42:17.358Z,62.08
2018-09-26T20:44:46.404Z,61.78
2018-09-26T20:47:15.852Z,61.91
2018-09-26T20:49:44.817Z,62.20
2018-09-26T20:52:13.924Z,63.14
2018-09-26T20:54:42.945Z,62.76
2018-09-26T20:57:11.880Z,63.59
2018-09-26T20:59:40.855Z,63.35
2018-09-26T21:02:09.799Z,63.82
2018-09-26T21:04:38.753Z,64.08
2018-09-26T21:07:07.806Z,64.10
2018-09-26T21:09:36.799Z,64.09
2018-09-26T21:12:05.802Z,63.83
2018-09-26T21:14:34.747Z,64.61
2018-09-26T21:17:03.690Z,64.00
2018-09-26T21:19:32.633Z,64.63
2018-09-26T21:22:07.713Z,64.86
2018-09-26T21:24:36.695Z,65.13
2018-09-26T21:27:11.642Z,66.01
2018-09-26T21:29:40.720Z,65.88
2018-09-26T21:32:10.839Z,66.45
2018-09-26T21:34:39.790Z,66.84
2018-09-26T21:37:08.727Z,66.98
2018-09-26T21:39:38.835Z,67.18
2018-09-26T21:42:07.792Z,67.30
2018-09-26T21:44:37.453Z,67.38
2018-09-26T21:47:06.552Z,68.20
2018-09-26T21:49:35.717Z,68.41
2018-09-26T21:52:05.058Z,68.51
2018-09-26T21:54:34.202Z,69.20
2018-09-26T21:57:04.263Z,69.35
2018-09-26T21:59:33.391Z,69.75
2018-09-26T22:02:02.442Z,69.33
2018-09-26T22:04:31.412Z,69.59
2018-09-26T22:07:00.984Z,69.64
2018-09-26T22:09:29.997Z,69.95
2018-09-26T22:11:59.053Z,70.13
2018-09-26T22:14:28.028Z,69.58
2018-09-26T22:16:57.160Z,69.98
2018-09-26T22:19:26.136Z,69.39
2018-09-26T22:21:55.072Z,70.83
2018-09-26T22:24:26.395Z,70.65
2018-09-26T22:26:59.806Z,71.00
2018-09-26T22:29:34.138Z,70.67
2018-09-26T22:32:04.540Z,70.83
2018-09-26T22:34:33.541Z,71.20
2018-09-26T22:37:02.622Z,72.11
2018-09-26T22:39:31.591Z,72.61
2018-09-26T22:42:00.692Z,72.21
2018-09-26T22:44:29.657Z,73.27
2018-09-26T22:46:58.692Z,73.16
2018-09-26T22:49:27.776Z,73.44
2018-09-26T22:51:57.633Z,73.77
2018-09-26T22:54:26.572Z,73.70
2018-09-26T22:56:55.550Z,73.71
2018-09-26T22:59:25.310Z,74.92
2018-09-26T23:01:54.242Z,75.39
2018-09-26T23:04:23.221Z,75.48
2018-09-26T23:06:52.379Z,76.18
2018-09-26T23:09:21.373Z,76.75
2018-09-26T23:11:50.336Z,76.79
2018-09-26T23:14:19.314Z,77.61
2018-09-26T23:16:48.278Z,77.79
2018-09-26T23:19:17.250Z,78.08
2018-09-26T23:21:46.197Z,77.92
2018-09-26T23:24:15.249Z,78.61
2018-09-26T23:26:44.371Z,79.06
2018-09-26T23:29:13.284Z,79.22
2018-09-26T23:31:42.233Z,78.88
2018-09-26T23:34:11.237Z,79.54
2018-09-26T23:36:40.462Z,79.74
2018-09-26T23:39:10.449Z,79.93
2018-09-26T23:41:39.732Z,79.72
2018-09-26T23:44:09.287Z,79.11
2018-09-26T23:46:38.199Z,79.38
2018-09-26T23:49:07.198Z,79.30
2018-09-26T23:51:36.124Z,79.46
2018-09-26T23:54:05.058Z,79.85
2018-09-26T23:56:34.000Z,79.59
2018-09-26T23:59:02.924Z,80.27
